Time;durP1;ratioP1;P1;durP2;ratioP2;P2;SDS_P1;SDS_P2;PMS_P1;PMS_P2;Temp;Humidity;BMP_temperature;BMP_pressure;BME280_temperature;BME280_humidity;BME280_pressure;Samples;Min_cycle;Max_cycle;Signal;HPM_P1;HPM_P2
2023/04/21 00:01:02;;;;;;;;;;;;;;;;;;;;;
2023/04/21 00:04:00;;;;;;;;;;;;;;;;;;;;;
2023/04/21 00:06:40;;;;;;;1.43;1.33;;;;;;;;;;5001681;28;20567;-92
2023/04/21 00:09:10;;;;;;;1.33;1.33;;;;;;;;;;5001834;28;20693;-94
2023/04/21 00:14:54;;;;;;;1.77;1.17;;;;;;;;;;5001910;28;20569;-95
2023/04/21 00:17:35;;;;;;;0.73;0.73;;;;;;;;;;4995139;28;20258;-95
2023/04/21 00:20:32;;;;;;;3.67;1.03;;;;;;;;;;5005790;28;20233;-94
2023/04/21 00:26:01;;;;;;;0.60;0.60;;;;;;;;;;5006914;28;20265;-93
2023/04/21 00:43:25;;;;;;;1.83;1.23;;;;;;;;;;5003910;28;20229;-95
2023/04/21 00:46:16;;;;;;;1.53;1.43;;;;;;;;;;5002985;28;20198;-93
2023/04/21 00:48:59;;;;;;;1.13;1.00;;;;;;;;;;5004555;28;20240;-93
2023/04/21 01:00:48;;;;;;;2.53;0.80;;;;;;;;;;5018665;28;20330;-94
2023/04/21 01:03:42;;;;;;;1.07;1.07;;;;;;;;;;5020402;28;20197;-94
2023/04/21 01:06:44;;;;;;;1.90;1.03;;;;;;;;;;5020498;28;20197;-94
2023/04/21 01:19:06;;;;;;;1.47;1.37;;;;;;;;;;5142222;27;20243;-93
2023/04/21 01:22:12;;;;;;;0.57;0.57;;;;;;;;;;5144920;27;20196;-94
2023/04/21 01:25:14;;;;;;;1.10;1.10;;;;;;;;;;5130764;28;20269;-93
2023/04/21 01:31:06;;;;;;;1.37;0.80;;;;;;;;;;5130150;28;20201;-91
2023/04/21 01:33:50;;;;;;;1.17;1.17;;;;;;;;;;5129554;28;20204;-92
2023/04/21 01:39:10;;;;;;;0.70;0.70;;;;;;;;;;5122212;28;20204;-92
2023/04/21 01:41:58;;;;;;;0.47;0.47;;;;;;;;;;5120025;28;20189;-95
2023/04/21 01:44:39;;;;;;;1.17;0.97;;;;;;;;;;5120189;28;20251;-93
2023/04/21 01:47:32;;;;;;;2.40;1.23;;;;;;;;;;5118634;28;20243;-93
2023/04/21 01:50:10;;;;;;;1.60;1.53;;;;;;;;;;5118188;28;20277;-93
2023/04/21 01:52:45;;;;;;;0.67;0.67;;;;;;;;;;5118177;28;20197;-92
2023/04/21 01:55:24;;;;;;;0.90;0.90;;;;;;;;;;5116835;28;20224;-92
2023/04/21 01:58:05;;;;;;;2.13;1.13;;;;;;;;;;5117881;28;20197;-94
2023/04/21 02:01:01;;;;;;;;;;;;;;;;;;;;;
2023/04/21 02:03:56;;;;;;;0.90;0.63;;;;;;;;;;5116933;28;20205;-93
2023/04/21 02:06:36;;;;;;;1.33;1.23;;;;;;;;;;5118398;28;20198;-93
2023/04/21 02:09:28;;;;;;;1.50;1.40;;;;;;;;;;5124306;28;20185;-92
2023/04/21 02:12:14;;;;;;;1.73;1.20;;;;;;;;;;5112504;28;20297;-93
2023/04/21 02:15:03;;;;;;;1.53;1.20;;;;;;;;;;5097514;28;20237;-93
2023/04/21 02:20:34;;;;;;;2.77;1.37;;;;;;;;;;5099128;28;20629;-93
2023/04/21 02:23:22;;;;;;;0.97;0.97;;;;;;;;;;5099882;28;20235;-92
2023/04/21 02:26:05;;;;;;;1.63;1.10;;;;;;;;;;5093337;28;20241;-93
2023/04/21 02:28:51;;;;;;;0.53;0.53;;;;;;;;;;5089638;28;20259;-92
2023/04/21 02:31:33;;;;;;;1.47;1.37;;;;;;;;;;5090006;28;20229;-92
2023/04/21 02:34:19;;;;;;;1.90;1.80;;;;;;;;;;5089022;28;20222;-94
2023/04/21 02:37:08;;;;;;;1.17;1.17;;;;;;;;;;5087936;28;20294;-93
2023/04/21 02:39:52;;;;;;;1.07;1.03;;;;;;;;;;5084277;28;20218;-94
2023/04/21 02:42:36;;;;;;;1.27;1.27;;;;;;;;;;5084602;28;20198;-92
2023/04/21 02:45:30;;;;;;;2.93;1.63;;;;;;;;;;5083965;28;20301;-94
2023/04/21 02:48:09;;;;;;;1.63;1.50;;;;;;;;;;5083421;28;20266;-93
2023/04/21 02:50:39;;;;;;;2.13;1.60;;;;;;;;;;5082622;28;20198;-93
2023/04/21 02:53:43;;;;;;;2.30;1.43;;;;;;;;;;5080985;28;20198;-92
2023/04/21 02:56:23;;;;;;;1.70;1.60;;;;;;;;;;5080663;28;20210;-93
2023/04/21 02:58:59;;;;;;;3.33;2.10;;;;;;;;;;5080797;28;20200;-92
2023/04/21 03:01:45;;;;;;;3.10;1.53;;;;;;;;;;5081956;28;20199;-94
2023/04/21 03:04:18;;;;;;;1.87;1.77;;;;;;;;;;5080955;28;20226;-93
2023/04/21 03:07:11;;;;;;;1.80;1.70;;;;;;;;;;5080846;28;20208;-94
2023/04/21 03:12:54;;;;;;;0.90;0.90;;;;;;;;;;5078761;28;20646;-92
2023/04/21 03:15:28;;;;;;;1.67;1.50;;;;;;;;;;5079209;28;20239;-93
2023/04/21 03:18:03;;;;;;;2.83;1.83;;;;;;;;;;5080832;28;20226;-93
2023/04/21 03:20:51;;;;;;;0.90;0.90;;;;;;;;;;5170053;22;20191;-93
2023/04/21 03:23:29;;;;;;;1.47;1.37;;;;;;;;;;5084693;28;20203;-95
2023/04/21 03:26:06;;;;;;;1.60;1.50;;;;;;;;;;5083100;28;20194;-93
2023/04/21 03:28:51;;;;;;;1.33;1.23;;;;;;;;;;5096291;28;20190;-93
2023/04/21 03:31:28;;;;;;;2.10;2.00;;;;;;;;;;5096889;28;20188;-94
2023/04/21 03:34:16;;;;;;;0.90;0.90;;;;;;;;;;5095300;28;20189;-93
2023/04/21 03:36:59;;;;;;;3.27;2.10;;;;;;;;;;5093377;28;20225;-94
2023/04/21 03:39:43;;;;;;;1.53;1.40;;;;;;;;;;5094009;28;20275;-95
2023/04/21 03:42:28;;;;;;;1.27;1.00;;;;;;;;;;5092426;28;20208;-93
2023/04/21 03:45:18;;;;;;;1.43;1.40;;;;;;;;;;5083185;28;20221;-94
2023/04/21 03:47:57;;;;;;;1.50;1.40;;;;;;;;;;5081561;28;20642;-93
2023/04/21 03:50:36;;;;;;;1.33;1.10;;;;;;;;;;5080425;28;20336;-93
2023/04/21 03:53:20;;;;;;;1.90;1.80;;;;;;;;;;5081711;28;20218;-95
2023/04/21 03:56:06;;;;;;;1.43;1.43;;;;;;;;;;5082110;28;20231;-92
2023/04/21 03:58:41;;;;;;;1.13;1.10;;;;;;;;;;5084294;28;20195;-93
2023/04/21 04:01:30;;;;;;;1.77;1.40;;;;;;;;;;5084740;28;20276;-93
2023/04/21 04:04:19;;;;;;;;;;;;;;;;;;;;;
2023/04/21 04:06:59;;;;;;;1.23;1.13;;;;;;;;;;5081026;28;20200;-95
2023/04/21 04:09:42;;;;;;;1.73;1.20;;;;;;;;;;5082110;28;20691;-95
2023/04/21 04:18:10;;;;;;;3.07;1.80;;;;;;;;;;5079374;28;20205;-94
2023/04/21 04:21:10;;;;;;;4.70;1.80;;;;;;;;;;5079615;28;20230;-93
2023/04/21 04:23:53;;;;;;;2.30;2.03;;;;;;;;;;5082527;28;20204;-92
2023/04/21 04:26:38;;;;;;;7.03;2.23;;;;;;;;;;5078824;28;20198;-93
2023/04/21 04:29:19;;;;;;;2.13;2.00;;;;;;;;;;5078719;28;20195;-94
2023/04/21 04:32:00;;;;;;;2.47;2.10;;;;;;;;;;5078839;28;20190;-93
2023/04/21 04:34:43;;;;;;;2.73;2.53;;;;;;;;;;5078563;28;20196;-93
2023/04/21 04:37:44;;;;;;;2.20;1.30;;;;;;;;;;5078651;28;20696;-94
2023/04/21 04:40:51;;;;;;;1.50;1.43;;;;;;;;;;5080225;28;20282;-93
2023/04/21 04:43:38;;;;;;;3.90;1.67;;;;;;;;;;5081027;28;20203;-93
2023/04/21 04:48:57;;;;;;;2.80;1.97;;;;;;;;;;5080598;28;20252;-94
2023/04/21 04:51:39;;;;;;;2.00;1.83;;;;;;;;;;5085349;28;20218;-94
2023/04/21 05:03:08;;;;;;;2.03;1.93;;;;;;;;;;5135191;22;20712;-93
2023/04/21 05:06:00;;;;;;;1.77;1.67;;;;;;;;;;5046656;28;20281;-94
2023/04/21 05:14:30;;;;;;;1.17;1.17;;;;;;;;;;5037762;28;20574;-95
2023/04/21 05:17:10;;;;;;;3.13;1.93;;;;;;;;;;5039184;28;20759;-93
2023/04/21 05:19:57;;;;;;;3.80;2.10;;;;;;;;;;5040590;28;20318;-93
2023/04/21 05:22:47;;;;;;;2.17;1.50;;;;;;;;;;5042919;28;20200;-94
2023/04/21 05:25:39;;;;;;;2.70;2.50;;;;;;;;;;5044004;28;20212;-94
2023/04/21 05:52:28;;;;;;;2.47;2.27;;;;;;;;;;5032029;28;20208;-92
2023/04/21 06:01:07;;;;;;;2.00;1.90;;;;;;;;;;5027558;28;20208;-92
2023/04/21 06:10:06;;;;;;;2.00;1.90;;;;;;;;;;5023612;28;20178;-93
2023/04/21 06:24:43;;;;;;;;;;;;;;;;;;;;;
2023/04/21 06:30:45;;;;;;;;;;;;;;;;;;;;;
2023/04/21 06:33:24;;;;;;;3.00;2.15;;;;;;;;;;5044955;28;20188;-93
2023/04/21 06:36:09;;;;;;;4.35;2.25;;;;;;;;;;5044551;28;20227;-93
2023/04/21 06:39:07;;;;;;;;;;;;;;;;;;;;;
2023/04/21 06:47:28;;;;;;;3.25;2.15;;;;;;;;;;5036997;28;20201;-93
2023/04/21 06:53:02;;;;;;;2.22;2.00;;;;;;;;;;5027054;28;20200;-92
2023/04/21 06:55:55;;;;;;;;;;;;;;;;;;;;;
2023/04/21 06:58:45;;;;;;;2.92;2.30;;;;;;;;;;5039288;28;20291;-94
2023/04/21 07:01:43;;;;;;;2.15;2.05;;;;;;;;;;5039581;28;20218;-95
2023/04/21 07:07:19;;;;;;;2.35;2.25;;;;;;;;;;4960273;28;20207;-94
2023/04/21 07:10:27;;;;;;;4.07;2.63;;;;;;;;;;4965924;29;20199;-92
2023/04/21 07:13:23;;;;;;;3.25;2.63;;;;;;;;;;4954319;28;20212;-95
2023/04/21 07:16:30;;;;;;;3.67;3.38;;;;;;;;;;5022059;28;20324;-94
2023/04/21 07:19:24;;;;;;;2.35;1.75;;;;;;;;;;5040720;28;20313;-95
2023/04/21 07:22:14;;;;;;;2.08;1.92;;;;;;;;;;5045675;28;20200;-92
2023/04/21 07:25:07;;;;;;;2.08;1.98;;;;;;;;;;5046331;28;20200;-94
2023/04/21 07:27:38;;;;;;;2.47;2.25;;;;;;;;;;5042510;28;20207;-94
2023/04/21 07:30:32;;;;;;;;;;;;;;;;;;;;;
2023/04/21 07:33:04;;;;;;;1.92;1.83;;;;;;;;;;5043162;28;20203;-95
2023/04/21 07:35:38;;;;;;;2.58;2.00;;;;;;;;;;5041037;28;20315;-93
2023/04/21 07:38:18;;;;;;;2.08;1.98;;;;;;;;;;5041640;28;20203;-93
2023/04/21 07:40:52;;;;;;;2.38;2.28;;;;;;;;;;5040223;28;20265;-93
2023/04/21 07:43:33;;;;;;;2.33;2.22;;;;;;;;;;5041156;28;20708;-93
2023/04/21 07:46:19;;;;;;;;;;;;;;;;;;;;;
2023/04/21 07:48:48;;;;;;;2.55;2.35;;;;;;;;;;5040602;28;20192;-91
2023/04/21 07:51:22;;;;;;;2.00;1.90;;;;;;;;;;5041084;28;20211;-92
2023/04/21 07:53:53;;;;;;;2.03;1.88;;;;;;;;;;5041004;28;20212;-91
2023/04/21 07:56:33;;;;;;;2.08;1.98;;;;;;;;;;5045194;28;20235;-94
2023/04/21 07:59:02;;;;;;;1.80;1.75;;;;;;;;;;5048118;28;20192;-93
2023/04/21 08:01:36;;;;;;;2.05;1.95;;;;;;;;;;5056116;28;20216;-93
2023/04/21 08:04:08;;;;;;;1.52;1.52;;;;;;;;;;5056753;28;20200;-93
2023/04/21 08:06:41;;;;;;;1.88;1.77;;;;;;;;;;5054599;28;20256;-93
2023/04/21 08:09:08;;;;;;;3.22;1.73;;;;;;;;;;5043358;28;20196;-93
2023/04/21 08:11:54;;;;;;;;;;;;;;;;;;;;;
2023/04/21 08:14:27;;;;;;;2.15;2.05;;;;;;;;;;5040266;28;20223;-93
2023/04/21 08:17:04;;;;;;;2.30;2.10;;;;;;;;;;5039111;28;20238;-92
2023/04/21 08:19:34;;;;;;;2.42;2.33;;;;;;;;;;5052365;28;20196;-91
2023/04/21 08:22:12;;;;;;;2.33;2.22;;;;;;;;;;5043361;28;20192;-93
2023/04/21 08:24:53;;;;;;;2.10;2.00;;;;;;;;;;5040419;28;20199;-93
2023/04/21 08:27:23;;;;;;;1.98;1.88;;;;;;;;;;5039479;28;20211;-93
2023/04/21 08:30:09;;;;;;;2.53;2.13;;;;;;;;;;5038904;28;20196;-93
2023/04/21 08:32:50;;;;;;;1.95;1.83;;;;;;;;;;5039138;28;20207;-93
2023/04/21 08:35:22;;;;;;;1.83;1.73;;;;;;;;;;5040134;28;20514;-92
2023/04/21 08:38:10;;;;;;;1.70;1.60;;;;;;;;;;5039923;28;20211;-92
2023/04/21 08:40:51;;;;;;;1.67;1.58;;;;;;;;;;5040986;28;20573;-93
2023/04/21 08:43:27;;;;;;;1.65;1.55;;;;;;;;;;5054391;28;20279;-92
2023/04/21 08:49:08;;;;;;;2.13;1.95;;;;;;;;;;5052999;28;20211;-93
2023/04/21 08:52:07;;;;;;;1.83;1.73;;;;;;;;;;5033963;28;20200;-94
2023/04/21 08:54:43;;;;;;;3.53;1.85;;;;;;;;;;5055035;28;20339;-93
2023/04/21 08:57:22;;;;;;;6.65;2.30;;;;;;;;;;5054985;28;20299;-93
2023/04/21 09:00:00;;;;;;;1.83;1.77;;;;;;;;;;5052902;28;20204;-93
2023/04/21 09:02:56;;;;;;;1.58;1.48;;;;;;;;;;5054544;28;20196;-93
2023/04/21 09:05:28;;;;;;;1.50;1.50;;;;;;;;;;5049934;28;20627;-95
2023/04/21 09:08:28;;;;;;;1.95;1.85;;;;;;;;;;5054561;28;20187;-92
2023/04/21 09:11:18;;;;;;;1.98;1.88;;;;;;;;;;5055923;28;20211;-94
2023/04/21 09:13:56;;;;;;;2.08;1.90;;;;;;;;;;5054770;28;20183;-89
2023/04/21 09:16:36;;;;;;;1.50;1.50;;;;;;;;;;5052688;28;20228;-94
2023/04/21 09:19:19;;;;;;;1.90;1.80;;;;;;;;;;5040743;28;20242;-93
2023/04/21 09:21:48;;;;;;;10.02;2.13;;;;;;;;;;5039774;28;20226;-94
2023/04/21 09:24:45;;;;;;;;;;;;;;;;;;;;;
2023/04/21 09:27:34;;;;;;;1.75;1.65;;;;;;;;;;5040689;28;20196;-95
2023/04/21 09:30:10;;;;;;;1.45;1.35;;;;;;;;;;5038837;28;20226;-94
2023/04/21 09:32:50;;;;;;;1.85;1.75;;;;;;;;;;5037767;28;20204;-93
2023/04/21 09:35:29;;;;;;;1.95;1.85;;;;;;;;;;5041127;28;20215;-94
2023/04/21 09:40:49;;;;;;;2.00;1.90;;;;;;;;;;5044118;28;20207;-92
2023/04/21 09:43:22;;;;;;;1.38;1.27;;;;;;;;;;5043081;28;20311;-92
2023/04/21 09:46:06;;;;;;;1.83;1.73;;;;;;;;;;5039548;28;20212;-92
2023/04/21 09:49:00;;;;;;;1.55;1.45;;;;;;;;;;5038091;28;20204;-93
2023/04/21 09:51:36;;;;;;;2.13;1.83;;;;;;;;;;5040445;28;20203;-93
2023/04/21 09:57:43;;;;;;;;;;;;;;;;;;;;;
2023/04/21 10:00:38;;;;;;;;;;;;;;;;;;;;;
2023/04/21 10:03:34;;;;;;;1.20;1.20;;;;;;;;;;5040354;28;20196;-93
2023/04/21 10:06:13;;;;;;;2.22;1.73;;;;;;;;;;4993406;28;20200;-93
2023/04/21 10:08:50;;;;;;;2.28;2.08;;;;;;;;;;5041373;28;20277;-92
2023/04/21 10:11:19;;;;;;;4.25;1.60;;;;;;;;;;5024125;28;20211;-94
2023/04/21 10:13:48;;;;;;;1.50;1.40;;;;;;;;;;5024214;28;20193;-92
2023/04/21 10:16:28;;;;;;;1.42;1.33;;;;;;;;;;5047739;28;20228;-92
2023/04/21 10:19:03;;;;;;;1.50;1.38;;;;;;;;;;5049647;28;20235;-90
2023/04/21 10:21:41;;;;;;;2.30;1.60;;;;;;;;;;5050052;28;20215;-91
2023/04/21 10:24:16;;;;;;;1.40;1.40;;;;;;;;;;5049007;28;20196;-91
2023/04/21 10:26:52;;;;;;;1.67;1.58;;;;;;;;;;5051179;28;20207;-92
2023/04/21 10:29:40;;;;;;;1.17;1.10;;;;;;;;;;5048109;28;20226;-92
2023/04/21 10:32:28;;;;;;;1.52;1.42;;;;;;;;;;5043779;28;20200;-94
2023/04/21 10:35:10;;;;;;;1.45;1.45;;;;;;;;;;5041375;28;20204;-92
2023/04/21 10:37:50;;;;;;;3.30;1.80;;;;;;;;;;5044056;28;20699;-94
2023/04/21 10:40:47;;;;;;;3.10;1.83;;;;;;;;;;5043461;28;20286;-94
2023/04/21 10:43:33;;;;;;;1.50;1.48;;;;;;;;;;5045746;28;20234;-92
2023/04/21 10:46:22;;;;;;;1.25;1.15;;;;;;;;;;5048389;28;20193;-91
2023/04/21 10:48:57;;;;;;;3.03;2.83;;;;;;;;;;5051390;28;20203;-92
2023/04/21 10:51:36;;;;;;;1.77;1.67;;;;;;;;;;5045747;28;20199;-93
2023/04/21 10:54:19;;;;;;;1.35;1.35;;;;;;;;;;5045157;28;20270;-93
2023/04/21 11:02:42;;;;;;;1.90;1.25;;;;;;;;;;5048829;28;20199;-92
2023/04/21 11:05:13;;;;;;;1.65;1.55;;;;;;;;;;5050207;28;20192;-93
2023/04/21 11:07:52;;;;;;;3.72;1.40;;;;;;;;;;5041361;28;20238;-94
2023/04/21 11:10:24;;;;;;;1.42;1.42;;;;;;;;;;5040532;28;20282;-93
2023/04/21 11:13:05;;;;;;;2.92;1.17;;;;;;;;;;5040951;28;20235;-95
2023/04/21 11:15:45;;;;;;;3.30;1.45;;;;;;;;;;5041545;28;20208;-94
2023/04/21 11:18:17;;;;;;;1.20;1.17;;;;;;;;;;5040107;28;20247;-95
2023/04/21 11:20:50;;;;;;;1.20;1.20;;;;;;;;;;5041474;28;20620;-94
2023/04/21 11:23:25;;;;;;;1.20;1.20;;;;;;;;;;5043153;28;20288;-94
2023/04/21 11:26:05;;;;;;;3.15;1.52;;;;;;;;;;5041566;28;20210;-93
2023/04/21 11:28:48;;;;;;;1.70;1.60;;;;;;;;;;5041643;28;20224;-94
2023/04/21 11:31:22;;;;;;;1.83;1.73;;;;;;;;;;5042937;28;20588;-94
2023/04/21 11:34:00;;;;;;;0.82;0.82;;;;;;;;;;5043105;28;20204;-93
2023/04/21 11:36:45;;;;;;;1.80;1.70;;;;;;;;;;5043218;28;20204;-96
2023/04/21 11:39:36;;;;;;;1.23;1.13;;;;;;;;;;5042917;28;20610;-95
2023/04/21 11:42:39;;;;;;;1.48;1.48;;;;;;;;;;5025400;28;20258;-95
2023/04/21 11:45:30;;;;;;;2.70;1.30;;;;;;;;;;5033266;28;20262;-95
2023/04/21 11:48:16;;;;;;;1.48;1.30;;;;;;;;;;5041987;28;20242;-94
2023/04/21 11:50:49;;;;;;;1.13;1.13;;;;;;;;;;5038825;28;20262;-96
2023/04/21 11:53:22;;;;;;;1.20;1.20;;;;;;;;;;5038904;28;20208;-94
2023/04/21 11:56:05;;;;;;;1.20;1.20;;;;;;;;;;5040269;28;20588;-96
2023/04/21 11:58:47;;;;;;;0.93;0.88;;;;;;;;;;5040439;28;21024;-94
2023/04/21 12:01:37;;;;;;;1.13;1.13;;;;;;;;;;5041674;28;20731;-95
2023/04/21 12:04:29;;;;;;;1.58;1.48;;;;;;;;;;5043263;28;20207;-94
2023/04/21 12:13:07;;;;;;;1.27;1.27;;;;;;;;;;5039523;28;20272;-94
2023/04/21 12:15:51;;;;;;;1.30;1.30;;;;;;;;;;5043301;28;20208;-92
2023/04/21 12:18:33;;;;;;;1.67;1.05;;;;;;;;;;4984080;28;20287;-94
2023/04/21 12:21:14;;;;;;;1.13;1.13;;;;;;;;;;5036273;28;20259;-93
2023/04/21 12:24:01;;;;;;;1.30;1.20;;;;;;;;;;5039473;28;20229;-95
2023/04/21 12:29:42;;;;;;;1.42;1.33;;;;;;;;;;5038274;28;20283;-95
2023/04/21 12:32:21;;;;;;;1.00;1.00;;;;;;;;;;5038860;28;20195;-93
2023/04/21 12:35:11;;;;;;;1.65;1.35;;;;;;;;;;5038770;28;20195;-95
2023/04/21 12:37:42;;;;;;;1.75;1.60;;;;;;;;;;5039213;28;20223;-93
2023/04/21 12:40:29;;;;;;;;;;;;;;;;;;;;;
2023/04/21 12:43:03;;;;;;;2.05;1.30;;;;;;;;;;5038238;28;20215;-93
2023/04/21 12:48:29;;;;;;;3.17;1.10;;;;;;;;;;5031051;28;20210;-95
2023/04/21 12:51:13;;;;;;;1.85;0.90;;;;;;;;;;5038210;28;20195;-94
2023/04/21 12:53:52;;;;;;;1.33;1.33;;;;;;;;;;5037858;28;20204;-95
2023/04/21 12:56:35;;;;;;;2.03;1.83;;;;;;;;;;5038782;28;20199;-95
2023/04/21 12:59:32;;;;;;;1.27;1.27;;;;;;;;;;5040261;28;20207;-95
2023/04/21 13:02:03;;;;;;;1.75;1.63;;;;;;;;;;4921102;29;20231;-93
2023/04/21 13:04:43;;;;;;;2.00;1.80;;;;;;;;;;5031207;28;20614;-93
2023/04/21 13:07:35;;;;;;;;;;;;;;;;;;;;;
2023/04/21 13:10:10;;;;;;;1.20;1.20;;;;;;;;;;5039688;28;20210;-93
2023/04/21 13:12:40;;;;;;;1.58;1.50;;;;;;;;;;5041927;28;20200;-94
2023/04/21 13:15:20;;;;;;;1.33;1.23;;;;;;;;;;5050174;28;20218;-94
2023/04/21 13:17:55;;;;;;;1.77;1.67;;;;;;;;;;5042485;28;20266;-94
2023/04/21 13:20:31;;;;;;;4.38;1.85;;;;;;;;;;5039254;28;20665;-92
2023/04/21 13:23:26;;;;;;;1.92;1.80;;;;;;;;;;5040229;28;20254;-92
2023/04/21 13:26:02;;;;;;;1.35;1.25;;;;;;;;;;5039886;28;20214;-94
2023/04/21 13:28:44;;;;;;;6.45;1.95;;;;;;;;;;5040442;28;20207;-93
2023/04/21 13:31:19;;;;;;;1.80;1.70;;;;;;;;;;5039916;28;20291;-93
2023/04/21 13:33:55;;;;;;;1.92;1.48;;;;;;;;;;5041554;28;20191;-94
2023/04/21 13:36:28;;;;;;;4.93;1.95;;;;;;;;;;5041628;28;20261;-94
2023/04/21 13:39:21;;;;;;;1.38;1.35;;;;;;;;;;5047479;28;20254;-92
2023/04/21 13:45:18;;;;;;;1.48;1.38;;;;;;;;;;5010396;28;20210;-91
2023/04/21 13:47:57;;;;;;;1.50;1.40;;;;;;;;;;5042720;28;20203;-93
2023/04/21 13:50:28;;;;;;;1.67;1.58;;;;;;;;;;5042982;28;20677;-93
2023/04/21 13:53:15;;;;;;;2.00;1.85;;;;;;;;;;5040924;28;20263;-94
2023/04/21 13:55:54;;;;;;;1.40;1.30;;;;;;;;;;5045523;28;20200;-94
2023/04/21 13:58:29;;;;;;;1.13;1.10;;;;;;;;;;5042999;28;20232;-92
2023/04/21 14:01:24;;;;;;;1.63;1.52;;;;;;;;;;5055169;28;20259;-94
2023/04/21 14:06:57;;;;;;;1.33;1.23;;;;;;;;;;5028993;28;20200;-94
2023/04/21 14:12:17;;;;;;;4.15;1.23;;;;;;;;;;5041564;28;20231;-94
2023/04/21 14:21:06;;;;;;;3.05;1.83;;;;;;;;;;5012747;28;20253;-94
2023/04/21 14:26:52;;;;;;;1.60;1.50;;;;;;;;;;5109694;22;20246;-94
2023/04/21 14:32:25;;;;;;;1.40;1.40;;;;;;;;;;5086298;28;20199;-92
2023/04/21 14:35:13;;;;;;;1.98;1.88;;;;;;;;;;5093221;28;20195;-93
2023/04/21 14:37:55;;;;;;;2.95;1.33;;;;;;;;;;5095750;28;20233;-92
2023/04/21 14:40:55;;;;;;;1.92;1.83;;;;;;;;;;5096143;28;20587;-93
2023/04/21 14:43:27;;;;;;;1.38;1.38;;;;;;;;;;5097506;28;20240;-90
2023/04/21 14:46:27;;;;;;;1.60;1.50;;;;;;;;;;5148505;22;20237;-93
2023/04/21 14:49:13;;;;;;;1.70;1.63;;;;;;;;;;5098014;28;20250;-93
2023/04/21 14:51:58;;;;;;;;;;;;;;;;;;;;;
2023/04/21 14:54:51;;;;;;;3.83;1.40;;;;;;;;;;5096891;28;20200;-93
2023/04/21 14:57:32;;;;;;;1.70;1.60;;;;;;;;;;5091903;28;20424;-95
2023/04/21 15:00:10;;;;;;;1.85;1.63;;;;;;;;;;5087539;28;20217;-94
2023/04/21 15:02:46;;;;;;;1.52;1.42;;;;;;;;;;5087221;28;20274;-94
2023/04/21 15:05:29;;;;;;;1.60;1.50;;;;;;;;;;5084460;28;20199;-94
2023/04/21 15:08:26;;;;;;;1.83;1.45;;;;;;;;;;5084786;28;20205;-94
2023/04/21 15:11:06;;;;;;;1.50;1.35;;;;;;;;;;5083881;28;20305;-94
2023/04/21 15:13:49;;;;;;;1.90;1.80;;;;;;;;;;5083944;28;20272;-94
2023/04/21 15:16:24;;;;;;;2.63;2.10;;;;;;;;;;5082110;28;20198;-94
2023/04/21 15:18:55;;;;;;;2.13;1.95;;;;;;;;;;5081252;28;20239;-95
2023/04/21 15:21:25;;;;;;;7.22;1.55;;;;;;;;;;5081264;28;20202;-93
2023/04/21 15:23:54;;;;;;;7.53;2.50;;;;;;;;;;5084780;28;20206;-95
2023/04/21 15:26:52;;;;;;;1.55;1.45;;;;;;;;;;5081719;28;20240;-95
2023/04/21 15:29:35;;;;;;;2.63;2.17;;;;;;;;;;5081963;28;20215;-93
2023/04/21 15:32:20;;;;;;;1.50;1.50;;;;;;;;;;5079094;28;20259;-94
2023/04/21 15:35:19;;;;;;;1.63;1.52;;;;;;;;;;5082372;28;20202;-94
2023/04/21 15:37:56;;;;;;;2.22;1.63;;;;;;;;;;5080812;28;20224;-94
2023/04/21 15:40:28;;;;;;;1.27;1.20;;;;;;;;;;5084042;28;20198;-93
2023/04/21 15:45:39;;;;;;;2.10;1.98;;;;;;;;;;5075201;28;20679;-93
2023/04/21 15:48:19;;;;;;;2.13;2.03;;;;;;;;;;5082106;28;20194;-94
2023/04/21 15:51:17;;;;;;;1.10;1.10;;;;;;;;;;5081071;28;20196;-94
2023/04/21 15:54:09;;;;;;;;;;;;;;;;;;;;;
2023/04/21 15:56:40;;;;;;;3.78;1.52;;;;;;;;;;5081246;28;20208;-94
2023/04/21 16:02:32;;;;;;;1.38;1.27;;;;;;;;;;5062013;28;20260;-94
2023/04/21 16:08:31;;;;;;;1.08;1.08;;;;;;;;;;4982201;28;20211;-92
2023/04/21 16:14:45;;;;;;;;;;;;;;;;;;;;;
2023/04/21 16:25:53;;;;;;;2.65;2.28;;;;;;;;;;5016282;28;20225;-94
2023/04/21 16:28:37;;;;;;;1.85;1.60;;;;;;;;;;5237551;22;20437;-93
2023/04/21 16:33:58;;;;;;;1.45;1.35;;;;;;;;;;5027160;28;20317;-94
2023/04/21 16:36:40;;;;;;;0.88;0.88;;;;;;;;;;5059114;28;20228;-93
2023/04/21 16:39:24;;;;;;;1.55;1.45;;;;;;;;;;5058739;28;20260;-94
2023/04/21 16:42:10;;;;;;;1.38;1.38;;;;;;;;;;5058734;28;20793;-95
2023/04/21 16:44:57;;;;;;;1.50;1.40;;;;;;;;;;5058349;28;20206;-95
2023/04/21 16:50:14;;;;;;;0.93;0.93;;;;;;;;;;5061940;28;20238;-96
2023/04/21 16:55:56;;;;;;;2.47;1.20;;;;;;;;;;5074668;28;20184;-95
2023/04/21 16:58:37;;;;;;;1.30;1.20;;;;;;;;;;5070829;28;20280;-93
2023/04/21 17:01:12;;;;;;;1.40;1.30;;;;;;;;;;5069609;28;20624;-93
2023/04/21 17:04:00;;;;;;;1.47;1.37;;;;;;;;;;5070620;28;20283;-95
2023/04/21 17:09:50;;;;;;;1.30;1.20;;;;;;;;;;5069811;28;20245;-96
2023/04/21 17:12:41;;;;;;;0.97;0.97;;;;;;;;;;5049542;28;20207;-91
2023/04/21 17:15:28;;;;;;;1.17;0.90;;;;;;;;;;5051581;28;20655;-94
2023/04/21 17:18:17;;;;;;;1.27;1.27;;;;;;;;;;5040698;28;20199;-93
2023/04/21 17:21:11;;;;;;;0.93;0.93;;;;;;;;;;5042073;28;20200;-94
2023/04/21 17:29:40;;;;;;;;;;;;;;;;;;;;;
2023/04/21 17:35:19;;;;;;;1.23;1.10;;;;;;;;;;5036844;28;20207;-95
2023/04/21 17:38:05;;;;;;;0.90;0.90;;;;;;;;;;5043790;28;20267;-94
2023/04/21 17:40:42;;;;;;;1.83;1.73;;;;;;;;;;5047348;28;20213;-94
2023/04/21 17:43:21;;;;;;;1.37;1.27;;;;;;;;;;5048100;28;20201;-94
2023/04/21 17:46:02;;;;;;;1.40;1.30;;;;;;;;;;5045293;28;20211;-94
2023/04/21 17:48:48;;;;;;;2.10;1.47;;;;;;;;;;5041473;28;20208;-94
2023/04/21 17:51:34;;;;;;;2.37;1.13;;;;;;;;;;5041424;28;20202;-95
2023/04/21 17:56:55;;;;;;;6.13;3.07;;;;;;;;;;5042103;28;20205;-94
2023/04/21 17:59:31;;;;;;;3.13;2.83;;;;;;;;;;5045275;28;20244;-94
2023/04/21 18:05:07;;;;;;;3.20;3.00;;;;;;;;;;5046863;28;20672;-94
2023/04/21 18:07:45;;;;;;;1.47;1.37;;;;;;;;;;5056148;28;20197;-91
2023/04/21 18:10:26;;;;;;;2.03;1.93;;;;;;;;;;5050668;28;20280;-94
2023/04/21 18:13:04;;;;;;;2.00;1.90;;;;;;;;;;5045319;28;20206;-93
2023/04/21 18:24:40;;;;;;;2.17;1.97;;;;;;;;;;5049330;28;20211;-94
2023/04/21 18:27:31;;;;;;;3.73;2.10;;;;;;;;;;5046906;28;20200;-96
2023/04/21 19:07:54;;;;;;;1.50;1.40;;;;;;;;;;4950452;29;20297;-95
2023/04/21 19:10:34;;;;;;;2.40;1.90;;;;;;;;;;4991391;28;20239;-93
2023/04/21 19:16:38;;;;;;;1.80;1.70;;;;;;;;;;4996960;28;20206;-95
2023/04/21 19:19:27;;;;;;;3.27;2.63;;;;;;;;;;4999289;28;20281;-93
2023/04/21 19:22:18;;;;;;;;;;;;;;;;;;;;;
2023/04/21 19:28:13;;;;;;;1.90;1.60;;;;;;;;;;4983236;28;20215;-95
2023/04/21 19:40:26;;;;;;;2.23;2.13;;;;;;;;;;4924933;29;20329;-95
2023/04/21 19:43:20;;;;;;;1.40;1.30;;;;;;;;;;4904159;29;20241;-93
2023/04/21 19:49:15;;;;;;;1.13;1.13;;;;;;;;;;4909598;29;20269;-95
2023/04/21 19:52:02;;;;;;;4.80;1.70;;;;;;;;;;4908204;29;20262;-94
2023/04/21 19:55:06;;;;;;;1.70;1.60;;;;;;;;;;4956721;28;20201;-95
2023/04/21 19:58:11;;;;;;;5.23;2.30;;;;;;;;;;4973912;28;20203;-95
2023/04/21 21:53:20;;;;;;;1.63;1.53;;;;;;;;;;5149990;22;20286;-94
2023/04/21 22:01:53;;;;;;;;;;;;;;;;;;;;;
2023/04/21 22:05:07;;;;;;;2.27;2.07;;;;;;;;;;5077854;28;20196;-95
2023/04/21 22:23:11;;;;;;;1.87;1.23;;;;;;;;;;5061253;28;20239;-93
2023/04/21 22:25:51;;;;;;;1.23;1.23;;;;;;;;;;5044391;28;20199;-95
2023/04/21 22:28:31;;;;;;;1.73;1.67;;;;;;;;;;5061518;28;20203;-96
2023/04/21 22:31:06;;;;;;;3.23;2.43;;;;;;;;;;5061354;28;20225;-94
2023/04/21 22:33:42;;;;;;;4.27;2.17;;;;;;;;;;5061836;28;20584;-93
2023/04/21 22:36:28;;;;;;;2.57;2.20;;;;;;;;;;5061679;28;20199;-93
2023/04/21 22:39:06;;;;;;;2.67;2.57;;;;;;;;;;5060962;28;20207;-94
2023/04/21 22:41:58;;;;;;;2.20;2.00;;;;;;;;;;5060769;28;20264;-93
2023/04/21 22:44:34;;;;;;;1.50;0.83;;;;;;;;;;5061134;28;20195;-94
2023/04/21 22:47:38;;;;;;;1.97;1.87;;;;;;;;;;5062076;28;20199;-94
2023/04/21 22:50:21;;;;;;;1.47;1.40;;;;;;;;;;4941206;29;20669;-95
2023/04/21 22:52:56;;;;;;;4.77;2.07;;;;;;;;;;4943413;28;20307;-94
2023/04/21 22:55:34;;;;;;;1.93;1.67;;;;;;;;;;4940701;29;20242;-93
2023/04/21 22:58:27;;;;;;;1.70;1.60;;;;;;;;;;5019158;28;20195;-96
2023/04/21 23:03:56;;;;;;;1.23;1.20;;;;;;;;;;5070102;28;20289;-93
2023/04/21 23:06:33;;;;;;;1.77;1.67;;;;;;;;;;5066639;28;20202;-96
2023/04/21 23:09:25;;;;;;;2.87;1.37;;;;;;;;;;5060630;28;20290;-95
2023/04/21 23:12:24;;;;;;;1.20;1.10;;;;;;;;;;5043374;28;20219;-93
2023/04/21 23:15:05;;;;;;;3.37;1.83;;;;;;;;;;5063100;28;20195;-93
2023/04/21 23:17:48;;;;;;;2.10;2.00;;;;;;;;;;5064565;28;20620;-95
2023/04/21 23:23:09;;;;;;;1.83;1.73;;;;;;;;;;5082659;22;20322;-93
2023/04/21 23:28:32;;;;;;;1.77;1.67;;;;;;;;;;5064425;28;20199;-94
2023/04/21 23:34:08;;;;;;;3.63;1.93;;;;;;;;;;5067954;28;20666;-93
2023/04/21 23:36:40;;;;;;;5.50;1.13;;;;;;;;;;5068302;28;20227;-91
2023/04/21 23:39:13;;;;;;;1.63;1.53;;;;;;;;;;5068129;28;20191;-92
2023/04/21 23:41:52;;;;;;;0.97;0.93;;;;;;;;;;5069827;28;20230;-94
2023/04/21 23:44:36;;;;;;;1.30;1.23;;;;;;;;;;5068596;28;20195;-94
2023/04/21 23:47:14;;;;;;;1.70;1.47;;;;;;;;;;5072079;28;20190;-94
2023/04/21 23:50:06;;;;;;;1.23;1.23;;;;;;;;;;5076562;28;20199;-92
2023/04/21 23:52:38;;;;;;;2.70;1.87;;;;;;;;;;5074492;28;20683;-96
2023/04/21 23:55:11;;;;;;;1.37;1.37;;;;;;;;;;5069962;28;20259;-95
2023/04/21 23:57:40;;;;;;;1.43;1.40;;;;;;;;;;5067178;28;20199;-94
